Time;durP1;ratioP1;P1;durP2;ratioP2;P2;SDS_P1;SDS_P2;PMS_P1;PMS_P2;Temp;Humidity;BMP_temperature;BMP_pressure;BME280_temperature;BME280_humidity;BME280_pressure;Samples;Min_cycle;Max_cycle;Signal;HPM_P1;HPM_P2
2021/07/27 00:01:20;;;;;;;8.27;4.97;;;;;;;;;;5068701;28;20024;-52
2021/07/27 00:03:46;;;;;;;8.68;5.53;;;;;;;;;;5092736;28;20031;-55
2021/07/27 00:06:12;;;;;;;5.65;4.65;;;;;;;;;;5067414;28;20478;-55
2021/07/27 00:08:38;;;;;;;7.57;5.28;;;;;;;;;;5080574;28;20082;-53
2021/07/27 00:11:05;;;;;;;7.30;4.75;;;;;;;;;;5071821;28;20356;-52
2021/07/27 00:13:31;;;;;;;9.73;5.47;;;;;;;;;;5082816;28;20024;-53
2021/07/27 00:15:57;;;;;;;8.50;5.10;;;;;;;;;;5079696;28;20070;-56
2021/07/27 00:18:23;;;;;;;6.00;4.80;;;;;;;;;;5078689;28;20055;-53
2021/07/27 00:20:50;;;;;;;6.30;4.60;;;;;;;;;;5076301;28;20043;-51
2021/07/27 00:23:16;;;;;;;7.28;5.20;;;;;;;;;;5062680;28;20958;-53
2021/07/27 00:25:42;;;;;;;9.65;5.15;;;;;;;;;;5064147;28;20029;-53
2021/07/27 00:28:09;;;;;;;8.70;4.65;;;;;;;;;;5056926;28;20056;-53
2021/07/27 00:30:35;;;;;;;9.98;4.78;;;;;;;;;;5054748;28;20159;-53
2021/07/27 00:33:01;;;;;;;10.02;5.50;;;;;;;;;;5066369;28;20170;-53
2021/07/27 00:35:29;;;;;;;11.35;5.10;;;;;;;;;;5085071;28;20024;-52
2021/07/27 00:38:17;;;;;;;8.23;4.80;;;;;;;;;;5089061;28;20470;-52
2021/07/27 00:40:44;;;;;;;7.43;5.20;;;;;;;;;;5091923;28;20032;-52
2021/07/27 00:43:14;;;;;;;8.65;4.80;;;;;;;;;;5085096;28;20110;-52
2021/07/27 00:45:40;;;;;;;11.82;5.85;;;;;;;;;;5057271;28;20064;-51
2021/07/27 00:48:06;;;;;;;11.10;5.47;;;;;;;;;;5065894;28;20088;-52
2021/07/27 00:50:33;;;;;;;8.23;5.32;;;;;;;;;;5092026;28;20464;-50
2021/07/27 00:53:00;;;;;;;6.25;4.53;;;;;;;;;;5089472;28;20027;-50
2021/07/27 00:55:26;;;;;;;5.97;4.90;;;;;;;;;;5091919;28;20107;-52
2021/07/27 00:57:52;;;;;;;7.22;5.28;;;;;;;;;;5061287;28;20028;-55
2021/07/27 01:00:18;;;;;;;9.27;5.28;;;;;;;;;;5068246;28;20078;-51
2021/07/27 01:02:44;;;;;;;7.72;4.90;;;;;;;;;;5081501;28;20028;-52
2021/07/27 01:05:10;;;;;;;6.97;5.55;;;;;;;;;;5091902;28;20494;-51
2021/07/27 01:07:37;;;;;;;6.00;4.47;;;;;;;;;;5075730;28;20158;-52
2021/07/27 01:10:07;;;;;;;9.52;4.80;;;;;;;;;;5060696;28;20053;-55
2021/07/27 01:12:33;;;;;;;6.00;4.82;;;;;;;;;;5070638;28;20116;-55
2021/07/27 01:14:59;;;;;;;6.32;4.60;;;;;;;;;;5095965;28;20039;-51
2021/07/27 01:17:25;;;;;;;9.70;5.00;;;;;;;;;;5082617;28;20151;-51
2021/07/27 01:19:58;;;;;;;6.13;4.75;;;;;;;;;;5082910;28;20479;-52
2021/07/27 01:39:05;;;;;;;6.70;4.50;;;;;;;;;;5083961;28;20138;-51
2021/07/27 01:44:01;;;;;;;6.35;4.43;;;;;;;;;;5081351;28;20038;-53
2021/07/27 01:46:28;;;;;;;7.75;4.70;;;;;;;;;;5083056;28;20032;-52
2021/07/27 01:48:54;;;;;;;5.97;4.65;;;;;;;;;;5085983;28;20384;-52
2021/07/27 01:51:20;;;;;;;9.02;5.13;;;;;;;;;;5084812;28;20498;-51
2021/07/27 01:53:51;;;;;;;6.82;4.88;;;;;;;;;;5077622;28;20032;-51
2021/07/27 01:56:18;;;;;;;5.85;4.70;;;;;;;;;;5085760;28;20057;-52
2021/07/27 01:58:44;;;;;;;7.50;5.22;;;;;;;;;;5095072;28;20030;-52
2021/07/27 02:01:10;;;;;;;5.93;4.70;;;;;;;;;;5064565;28;20118;-51
2021/07/27 02:03:36;;;;;;;8.15;5.30;;;;;;;;;;5095105;28;20429;-55
2021/07/27 02:06:02;;;;;;;6.15;4.60;;;;;;;;;;5062988;28;20090;-54
2021/07/27 02:08:28;;;;;;;6.57;4.90;;;;;;;;;;5073452;28;20067;-50
2021/07/27 02:10:58;;;;;;;8.45;4.45;;;;;;;;;;5072516;28;20405;-51
2021/07/27 02:13:48;;;;;;;6.10;4.68;;;;;;;;;;5085077;28;20032;-51
2021/07/27 02:16:15;;;;;;;6.85;4.53;;;;;;;;;;5062701;28;20038;-50
2021/07/27 02:18:41;;;;;;;5.90;4.70;;;;;;;;;;5079783;28;20028;-51
2021/07/27 02:21:07;;;;;;;6.55;4.30;;;;;;;;;;5089651;28;20055;-50
2021/07/27 02:23:32;;;;;;;6.45;4.28;;;;;;;;;;5066640;28;20037;-51
2021/07/27 02:25:58;;;;;;;6.78;4.55;;;;;;;;;;5064102;28;20056;-52
2021/07/27 02:28:24;;;;;;;9.50;6.03;;;;;;;;;;5073573;28;20028;-51
2021/07/27 02:30:56;;;;;;;7.43;4.75;;;;;;;;;;5071593;28;20095;-53
2021/07/27 02:33:22;;;;;;;6.18;4.60;;;;;;;;;;5069742;28;20653;-53
2021/07/27 02:35:48;;;;;;;7.18;4.32;;;;;;;;;;5092509;28;20035;-50
2021/07/27 02:38:15;;;;;;;7.65;4.55;;;;;;;;;;5090716;28;20028;-51
2021/07/27 02:40:42;;;;;;;7.90;5.25;;;;;;;;;;5067595;28;20047;-52
2021/07/27 02:43:10;;;;;;;6.82;4.90;;;;;;;;;;5084161;28;20029;-51
2021/07/27 02:45:36;;;;;;;6.05;5.22;;;;;;;;;;5094356;28;20105;-54
2021/07/27 02:48:06;;;;;;;6.38;4.78;;;;;;;;;;5063149;28;20021;-52
2021/07/27 02:50:35;;;;;;;8.10;5.28;;;;;;;;;;5079648;28;20064;-52
2021/07/27 02:53:01;;;;;;;6.50;4.55;;;;;;;;;;5077730;28;20107;-55
2021/07/27 02:55:27;;;;;;;6.10;4.70;;;;;;;;;;5077800;28;20116;-50
2021/07/27 02:57:53;;;;;;;8.18;4.82;;;;;;;;;;5084953;28;20168;-50
2021/07/27 03:00:19;;;;;;;8.80;5.13;;;;;;;;;;5079050;28;20041;-51
2021/07/27 03:02:45;;;;;;;8.80;4.75;;;;;;;;;;5080450;28;20487;-50
2021/07/27 03:05:12;;;;;;;6.13;4.13;;;;;;;;;;5070429;28;20067;-53
2021/07/27 03:10:17;;;;;;;8.20;4.85;;;;;;;;;;5082699;28;20052;-51
2021/07/27 03:12:43;;;;;;;7.15;4.82;;;;;;;;;;5076924;28;20035;-51
2021/07/27 03:15:10;;;;;;;9.00;4.53;;;;;;;;;;5064434;28;20059;-50
2021/07/27 03:17:36;;;;;;;7.10;5.07;;;;;;;;;;5074007;28;20060;-51
2021/07/27 03:20:05;;;;;;;7.72;5.20;;;;;;;;;;5093890;28;20071;-56
2021/07/27 03:22:31;;;;;;;9.13;5.07;;;;;;;;;;5077079;28;20105;-55
2021/07/27 03:24:58;;;;;;;6.82;4.95;;;;;;;;;;5056012;28;20028;-56
2021/07/27 03:27:24;;;;;;;6.38;5.10;;;;;;;;;;5086462;28;20016;-53
2021/07/27 03:29:50;;;;;;;9.43;5.35;;;;;;;;;;5092784;28;20024;-51
2021/07/27 03:32:16;;;;;;;6.55;5.00;;;;;;;;;;5073045;28;20107;-51
2021/07/27 03:34:42;;;;;;;6.45;4.85;;;;;;;;;;5080728;28;20024;-54
2021/07/27 03:37:10;;;;;;;5.97;5.20;;;;;;;;;;5085492;28;20052;-51
2021/07/27 03:39:36;;;;;;;7.00;5.35;;;;;;;;;;5081433;28;20047;-51
2021/07/27 03:42:03;;;;;;;6.20;4.75;;;;;;;;;;5064321;28;20482;-50
2021/07/27 03:44:29;;;;;;;7.55;5.20;;;;;;;;;;5086440;28;20056;-51
2021/07/27 03:46:55;;;;;;;8.45;5.38;;;;;;;;;;5081366;28;20077;-52
2021/07/27 03:49:21;;;;;;;13.05;5.40;;;;;;;;;;5084841;28;20367;-50
2021/07/27 03:51:47;;;;;;;7.07;4.97;;;;;;;;;;5093020;28;20028;-52
2021/07/27 03:54:13;;;;;;;10.13;6.05;;;;;;;;;;5080687;28;20058;-53
2021/07/27 03:56:40;;;;;;;10.55;4.85;;;;;;;;;;5069614;28;20036;-54
2021/07/27 03:59:06;;;;;;;7.07;5.15;;;;;;;;;;5092796;28;20077;-50
2021/07/27 04:01:32;;;;;;;8.07;5.53;;;;;;;;;;5074157;28;20032;-56
2021/07/27 04:03:58;;;;;;;7.70;5.38;;;;;;;;;;5073881;28;20037;-52
2021/07/27 04:06:24;;;;;;;6.55;4.85;;;;;;;;;;5076034;28;20039;-51
2021/07/27 04:08:50;;;;;;;10.55;5.32;;;;;;;;;;5087344;28;20044;-51
2021/07/27 04:11:16;;;;;;;8.75;5.82;;;;;;;;;;5075432;28;20031;-53
2021/07/27 04:13:41;;;;;;;8.05;5.63;;;;;;;;;;5068651;28;20063;-51
2021/07/27 04:16:07;;;;;;;7.47;5.45;;;;;;;;;;5068617;28;20028;-50
2021/07/27 04:18:33;;;;;;;7.13;5.38;;;;;;;;;;5064237;28;20021;-51
2021/07/27 04:21:02;;;;;;;7.60;5.70;;;;;;;;;;5081648;28;20024;-51
2021/07/27 04:23:28;;;;;;;7.43;4.93;;;;;;;;;;5074248;28;20082;-51
2021/07/27 04:25:54;;;;;;;11.80;5.68;;;;;;;;;;5075492;28;20143;-51
2021/07/27 04:28:20;;;;;;;6.65;4.95;;;;;;;;;;5081496;28;20069;-52
2021/07/27 04:30:46;;;;;;;7.80;5.55;;;;;;;;;;5069676;28;20082;-51
2021/07/27 04:33:12;;;;;;;8.48;5.82;;;;;;;;;;5076736;28;20449;-51
2021/07/27 04:35:39;;;;;;;6.00;4.78;;;;;;;;;;5071943;28;20395;-52
2021/07/27 04:38:05;;;;;;;14.20;6.28;;;;;;;;;;5086415;28;20456;-51
2021/07/27 04:40:31;;;;;;;7.22;5.50;;;;;;;;;;5071404;28;20467;-51
2021/07/27 04:42:59;;;;;;;6.28;4.85;;;;;;;;;;5090844;28;20039;-52
2021/07/27 04:45:27;;;;;;;7.78;5.45;;;;;;;;;;5088580;28;20070;-51
2021/07/27 04:47:56;;;;;;;7.90;5.68;;;;;;;;;;5072079;28;20570;-54
2021/07/27 04:50:22;;;;;;;8.00;5.85;;;;;;;;;;5090994;28;20056;-56
2021/07/27 04:52:51;;;;;;;7.65;5.00;;;;;;;;;;5070777;28;20055;-51
2021/07/27 04:55:18;;;;;;;8.07;5.65;;;;;;;;;;5060826;28;20044;-53
2021/07/27 04:57:44;;;;;;;7.78;6.10;;;;;;;;;;5062167;28;20427;-53
2021/07/27 05:00:10;;;;;;;6.75;4.75;;;;;;;;;;5052048;28;20029;-56
2021/07/27 05:02:36;;;;;;;7.47;5.53;;;;;;;;;;5080160;28;20484;-51
2021/07/27 05:05:02;;;;;;;7.30;5.45;;;;;;;;;;5069964;28;20032;-52
2021/07/27 05:07:28;;;;;;;11.23;5.47;;;;;;;;;;5063360;28;20025;-50
2021/07/27 05:09:53;;;;;;;7.38;5.78;;;;;;;;;;5078330;28;20499;-51
2021/07/27 05:12:19;;;;;;;6.63;4.65;;;;;;;;;;5075233;28;20020;-54
2021/07/27 05:14:45;;;;;;;6.60;4.75;;;;;;;;;;5067295;28;20078;-53
2021/07/27 05:17:12;;;;;;;7.93;5.25;;;;;;;;;;5064126;28;20099;-51
2021/07/27 05:19:51;;;;;;;7.70;5.30;;;;;;;;;;5074829;28;20021;-52
2021/07/27 05:22:17;;;;;;;8.20;5.00;;;;;;;;;;5066374;28;20036;-51
2021/07/27 05:24:43;;;;;;;9.13;5.15;;;;;;;;;;5064386;28;20021;-54
2021/07/27 05:27:09;;;;;;;7.53;4.90;;;;;;;;;;5069218;28;20025;-52
2021/07/27 05:29:35;;;;;;;6.95;4.82;;;;;;;;;;5069586;28;20092;-50
2021/07/27 05:32:04;;;;;;;6.93;5.05;;;;;;;;;;5056557;28;20457;-55
2021/07/27 05:34:30;;;;;;;7.72;5.10;;;;;;;;;;5063351;28;20108;-53
2021/07/27 05:36:56;;;;;;;6.43;4.57;;;;;;;;;;5061457;28;20112;-52
2021/07/27 05:39:22;;;;;;;9.00;4.78;;;;;;;;;;5091119;28;20103;-52
2021/07/27 05:41:48;;;;;;;10.48;4.95;;;;;;;;;;5077731;28;20024;-52
2021/07/27 05:44:14;;;;;;;7.97;4.63;;;;;;;;;;5087537;28;20028;-50
2021/07/27 05:46:40;;;;;;;7.32;4.80;;;;;;;;;;5080074;28;20040;-51
2021/07/27 05:49:09;;;;;;;7.68;4.15;;;;;;;;;;5057963;28;20487;-54
2021/07/27 05:51:36;;;;;;;6.25;4.65;;;;;;;;;;5084349;28;20069;-54
2021/07/27 05:54:02;;;;;;;5.03;4.05;;;;;;;;;;5075978;28;20423;-53
2021/07/27 05:56:27;;;;;;;7.80;4.63;;;;;;;;;;5071674;28;20028;-56
2021/07/27 05:58:54;;;;;;;7.47;4.32;;;;;;;;;;5077094;28;20463;-53
2021/07/27 06:01:20;;;;;;;9.02;4.30;;;;;;;;;;5075439;28;20051;-53
2021/07/27 06:03:46;;;;;;;6.10;3.90;;;;;;;;;;5080923;28;20036;-52
2021/07/27 06:06:12;;;;;;;4.93;3.78;;;;;;;;;;5071362;28;20040;-54
2021/07/27 06:08:38;;;;;;;8.82;3.85;;;;;;;;;;5070795;28;20025;-54
2021/07/27 06:11:05;;;;;;;5.63;4.13;;;;;;;;;;5071410;28;20040;-50
2021/07/27 06:13:31;;;;;;;8.55;4.70;;;;;;;;;;5073621;28;20410;-52
2021/07/27 06:16:02;;;;;;;6.57;4.22;;;;;;;;;;5069176;28;20075;-50
2021/07/27 06:18:28;;;;;;;6.53;3.50;;;;;;;;;;5071132;28;20541;-56
2021/07/27 06:20:54;;;;;;;6.63;4.38;;;;;;;;;;5076714;28;20157;-54
2021/07/27 06:23:20;;;;;;;6.00;3.92;;;;;;;;;;5076972;28;20069;-51
2021/07/27 06:25:46;;;;;;;5.20;3.20;;;;;;;;;;5075163;28;20039;-51
2021/07/27 06:28:12;;;;;;;5.43;3.47;;;;;;;;;;5074496;28;20033;-51
2021/07/27 06:30:38;;;;;;;5.15;3.58;;;;;;;;;;5074038;28;20038;-50
2021/07/27 06:33:04;;;;;;;7.28;4.15;;;;;;;;;;5074212;28;20477;-53
2021/07/27 06:35:30;;;;;;;4.63;3.60;;;;;;;;;;5085834;28;20360;-53
2021/07/27 06:37:56;;;;;;;8.75;3.78;;;;;;;;;;5078777;28;20035;-53
2021/07/27 06:40:22;;;;;;;6.15;4.35;;;;;;;;;;5066179;28;20031;-52
2021/07/27 06:42:48;;;;;;;5.88;3.65;;;;;;;;;;5063414;28;20373;-50
2021/07/27 06:45:14;;;;;;;4.75;3.88;;;;;;;;;;5070385;28;20029;-50
2021/07/27 06:47:40;;;;;;;7.00;3.78;;;;;;;;;;5059506;28;20485;-53
2021/07/27 06:50:07;;;;;;;4.70;3.65;;;;;;;;;;5074082;28;20020;-51
2021/07/27 06:52:33;;;;;;;7.88;3.63;;;;;;;;;;5059141;28;20029;-55
2021/07/27 06:54:59;;;;;;;7.70;4.07;;;;;;;;;;5068738;28;20024;-52
2021/07/27 06:57:26;;;;;;;9.00;3.88;;;;;;;;;;5060708;28;20040;-52
2021/07/27 06:59:52;;;;;;;8.73;3.90;;;;;;;;;;5059517;28;20021;-54
2021/07/27 07:02:18;;;;;;;5.85;3.92;;;;;;;;;;5066942;28;20040;-52
2021/07/27 07:04:44;;;;;;;7.07;3.92;;;;;;;;;;5062851;28;20028;-50
2021/07/27 07:07:10;;;;;;;4.65;3.40;;;;;;;;;;5067789;28;20029;-51
2021/07/27 07:09:36;;;;;;;7.55;3.70;;;;;;;;;;5062661;28;20521;-53
2021/07/27 07:12:07;;;;;;;6.78;3.35;;;;;;;;;;5078888;28;20036;-54
2021/07/27 07:14:33;;;;;;;5.38;3.40;;;;;;;;;;5072354;28;20082;-53
2021/07/27 07:16:59;;;;;;;5.50;3.00;;;;;;;;;;5070847;28;20516;-53
2021/07/27 07:19:25;;;;;;;5.55;2.90;;;;;;;;;;5083607;28;20055;-55
2021/07/27 07:21:51;;;;;;;5.97;3.13;;;;;;;;;;5072140;28;20028;-50
2021/07/27 07:24:17;;;;;;;8.10;3.10;;;;;;;;;;5062155;28;20017;-52
2021/07/27 07:26:44;;;;;;;7.50;3.38;;;;;;;;;;5070534;28;20082;-52
2021/07/27 07:29:10;;;;;;;7.15;3.25;;;;;;;;;;5057223;28;20082;-50
2021/07/27 07:31:36;;;;;;;6.10;2.72;;;;;;;;;;5081254;28;20036;-51
2021/07/27 07:34:02;;;;;;;5.78;2.47;;;;;;;;;;5070800;28;20657;-50
2021/07/27 07:36:28;;;;;;;6.20;3.25;;;;;;;;;;5069888;28;20025;-56
2021/07/27 07:38:54;;;;;;;4.15;3.22;;;;;;;;;;5088308;28;20749;-54
2021/07/27 07:41:20;;;;;;;5.38;3.10;;;;;;;;;;5063629;28;20029;-56
2021/07/27 07:43:49;;;;;;;4.72;3.33;;;;;;;;;;5071833;28;20032;-55
2021/07/27 07:46:15;;;;;;;5.97;3.42;;;;;;;;;;5079790;28;20040;-54
2021/07/27 07:48:41;;;;;;;4.25;2.72;;;;;;;;;;5082375;28;20033;-51
2021/07/27 07:51:07;;;;;;;5.20;3.05;;;;;;;;;;5058964;28;20028;-53
2021/07/27 07:53:33;;;;;;;3.88;2.70;;;;;;;;;;5065711;28;20036;-57
2021/07/27 07:55:59;;;;;;;3.67;2.55;;;;;;;;;;5052884;28;20106;-56
2021/07/27 07:58:25;;;;;;;5.70;2.70;;;;;;;;;;5074741;28;20025;-51
2021/07/27 08:00:51;;;;;;;3.47;2.67;;;;;;;;;;5053241;28;20514;-54
2021/07/27 08:03:17;;;;;;;5.00;2.75;;;;;;;;;;5079191;28;20446;-57
2021/07/27 08:05:43;;;;;;;3.50;2.33;;;;;;;;;;5081764;28;20036;-56
2021/07/27 08:08:09;;;;;;;5.93;2.30;;;;;;;;;;5084503;28;20472;-52
2021/07/27 08:10:35;;;;;;;5.93;2.17;;;;;;;;;;5060621;28;20045;-55
2021/07/27 08:13:01;;;;;;;2.92;1.95;;;;;;;;;;5084127;28;20056;-57
2021/07/27 08:15:27;;;;;;;6.97;2.17;;;;;;;;;;5079984;28;20021;-51
2021/07/27 08:17:53;;;;;;;6.57;2.38;;;;;;;;;;5055290;28;20041;-53
2021/07/27 08:20:20;;;;;;;6.20;2.88;;;;;;;;;;5058758;28;20033;-49
2021/07/27 08:22:46;;;;;;;3.88;2.08;;;;;;;;;;5068464;28;20168;-52
2021/07/27 08:25:16;;;;;;;6.00;2.25;;;;;;;;;;5075780;28;20033;-50
2021/07/27 08:27:46;;;;;;;5.15;2.67;;;;;;;;;;5076999;28;20157;-50
2021/07/27 08:30:17;;;;;;;4.82;2.05;;;;;;;;;;5088575;28;20081;-52
2021/07/27 08:32:47;;;;;;;7.03;2.47;;;;;;;;;;5077842;28;20077;-51
2021/07/27 08:35:13;;;;;;;6.03;2.58;;;;;;;;;;5058558;28;20039;-52
2021/07/27 08:37:39;;;;;;;4.25;2.78;;;;;;;;;;5080663;28;20139;-53
2021/07/27 08:40:06;;;;;;;3.15;2.13;;;;;;;;;;5056340;28;20033;-49
2021/07/27 08:42:34;;;;;;;5.45;2.28;;;;;;;;;;5092269;28;20107;-50
2021/07/27 08:45:01;;;;;;;3.50;2.33;;;;;;;;;;5067413;28;20036;-52
2021/07/27 08:47:27;;;;;;;4.90;2.25;;;;;;;;;;5092345;28;20020;-54
2021/07/27 08:49:55;;;;;;;3.78;2.42;;;;;;;;;;5071611;28;20103;-53
2021/07/27 08:52:21;;;;;;;3.03;2.08;;;;;;;;;;5078940;28;20476;-52
2021/07/27 08:54:47;;;;;;;3.97;2.45;;;;;;;;;;5088452;28;20016;-55
2021/07/27 08:57:15;;;;;;;2.58;1.95;;;;;;;;;;5084359;28;20034;-54
2021/07/27 08:59:41;;;;;;;4.32;1.73;;;;;;;;;;5067220;28;20028;-55
2021/07/27 09:02:08;;;;;;;6.43;2.10;;;;;;;;;;5081948;28;20411;-55
2021/07/27 09:04:34;;;;;;;3.33;1.90;;;;;;;;;;5080508;28;20032;-55
2021/07/27 09:07:00;;;;;;;5.57;2.30;;;;;;;;;;5064279;28;20029;-53
2021/07/27 09:09:30;;;;;;;2.33;1.83;;;;;;;;;;5067834;28;20127;-51
2021/07/27 09:11:57;;;;;;;4.57;2.25;;;;;;;;;;5059885;28;20036;-49
2021/07/27 09:14:23;;;;;;;3.65;2.38;;;;;;;;;;5082798;28;20020;-49
2021/07/27 09:16:50;;;;;;;4.45;2.25;;;;;;;;;;5089355;28;20111;-49
2021/07/27 09:19:17;;;;;;;4.18;2.40;;;;;;;;;;5084956;28;20028;-51
2021/07/27 09:21:43;;;;;;;2.72;2.15;;;;;;;;;;5075934;28;20026;-53
2021/07/27 09:24:23;;;;;;;3.75;2.53;;;;;;;;;;5087513;28;20036;-49
2021/07/27 09:26:56;;;;;;;3.95;2.17;;;;;;;;;;5079215;28;20025;-51
2021/07/27 09:29:23;;;;;;;;;;;;;;;;;;5069269;28;20039;-49
2021/07/27 09:31:52;;;;;;;5.95;3.35;;;;;;;;;;5079638;28;19915;-51
2021/07/27 09:34:19;;;;;;;3.53;2.30;;;;;;;;;;5062384;28;20131;-53
2021/07/27 09:36:45;;;;;;;6.03;2.38;;;;;;;;;;5080127;28;20032;-54
2021/07/27 09:39:11;;;;;;;3.60;2.70;;;;;;;;;;5095280;28;20039;-49
2021/07/27 09:41:37;;;;;;;3.38;2.50;;;;;;;;;;5090833;28;20140;-52
2021/07/27 09:44:07;;;;;;;3.78;2.22;;;;;;;;;;5077897;28;20419;-48
2021/07/27 09:46:33;;;;;;;2.67;1.77;;;;;;;;;;5067631;28;20055;-52
2021/07/27 09:49:00;;;;;;;4.60;2.30;;;;;;;;;;5095101;28;20024;-49
2021/07/27 09:51:29;;;;;;;3.53;2.30;;;;;;;;;;5071825;28;20032;-50
2021/07/27 09:53:55;;;;;;;4.80;1.98;;;;;;;;;;5064970;28;20052;-53
2021/07/27 09:56:21;;;;;;;3.38;2.10;;;;;;;;;;5059050;28;20033;-49
2021/07/27 09:58:47;;;;;;;4.22;2.20;;;;;;;;;;5061941;28;20118;-50
2021/07/27 10:01:25;;;;;;;6.20;2.22;;;;;;;;;;5074232;28;20040;-49
2021/07/27 10:03:54;;;;;;;2.90;1.90;;;;;;;;;;5078468;28;20546;-49
2021/07/27 10:06:22;;;;;;;4.50;2.30;;;;;;;;;;5082576;28;20029;-49
2021/07/27 10:08:53;;;;;;;3.25;2.38;;;;;;;;;;5074395;28;20036;-49
2021/07/27 10:11:19;;;;;;;4.82;2.45;;;;;;;;;;5075724;28;20484;-50
2021/07/27 10:13:46;;;;;;;4.68;2.15;;;;;;;;;;5062387;28;20110;-50
2021/07/27 10:16:21;;;;;;;3.17;2.10;;;;;;;;;;5067514;28;20124;-49
2021/07/27 10:18:47;;;;;;;4.60;2.40;;;;;;;;;;5060433;28;20079;-49
2021/07/27 10:21:24;;;;;;;3.05;2.20;;;;;;;;;;5065450;28;20044;-51
2021/07/27 10:24:11;;;;;;;2.85;1.80;;;;;;;;;;5058030;28;20024;-49
2021/07/27 10:26:37;;;;;;;4.45;2.70;;;;;;;;;;5057464;28;20028;-49
2021/07/27 10:29:03;;;;;;;3.15;2.03;;;;;;;;;;5066488;28;20523;-49
2021/07/27 10:31:34;;;;;;;7.05;2.30;;;;;;;;;;5057232;28;20464;-49
2021/07/27 10:34:02;;;;;;;5.03;2.20;;;;;;;;;;5062029;28;20052;-49
2021/07/27 10:36:31;;;;;;;3.20;2.13;;;;;;;;;;5056741;28;20772;-53
2021/07/27 10:39:04;;;;;;;8.10;2.65;;;;;;;;;;5056940;28;20091;-51
2021/07/27 10:41:34;;;;;;;2.65;2.08;;;;;;;;;;5067092;28;20036;-48
2021/07/27 10:44:04;;;;;;;3.00;2.03;;;;;;;;;;5083779;28;20032;-49
2021/07/27 10:46:30;;;;;;;2.97;1.88;;;;;;;;;;5079112;28;20082;-49
2021/07/27 10:48:57;;;;;;;3.97;2.10;;;;;;;;;;5079721;28;20086;-51
2021/07/27 10:51:24;;;;;;;3.30;2.20;;;;;;;;;;5070344;28;20373;-50
2021/07/27 10:53:52;;;;;;;5.95;2.03;;;;;;;;;;5075352;28;20021;-48
2021/07/27 10:56:20;;;;;;;3.88;1.90;;;;;;;;;;5068055;28;20523;-49
2021/07/27 10:58:46;;;;;;;2.83;1.95;;;;;;;;;;5085352;28;20051;-49
2021/07/27 11:01:17;;;;;;;2.05;1.58;;;;;;;;;;5077870;28;20054;-49
2021/07/27 11:03:43;;;;;;;3.33;1.75;;;;;;;;;;5079065;28;20028;-48
2021/07/27 11:06:09;;;;;;;2.50;2.10;;;;;;;;;;5069549;28;20032;-49
2021/07/27 11:08:35;;;;;;;2.75;1.83;;;;;;;;;;5093603;28;20012;-48
2021/07/27 11:11:12;;;;;;;3.90;2.08;;;;;;;;;;5082579;28;20373;-51
2021/07/27 11:13:39;;;;;;;3.55;2.03;;;;;;;;;;5093500;28;20028;-52
2021/07/27 11:16:05;;;;;;;2.85;2.00;;;;;;;;;;5080091;28;20388;-48
2021/07/27 11:18:31;;;;;;;6.20;1.85;;;;;;;;;;5093618;28;20051;-52
2021/07/27 11:20:58;;;;;;;2.63;1.80;;;;;;;;;;5087283;28;20115;-51
2021/07/27 11:23:25;;;;;;;4.30;1.80;;;;;;;;;;5079018;28;20165;-49
2021/07/27 11:25:52;;;;;;;2.50;1.70;;;;;;;;;;5081513;28;20035;-50
2021/07/27 11:28:19;;;;;;;3.05;2.00;;;;;;;;;;5093129;28;20043;-50
2021/07/27 11:30:46;;;;;;;5.43;2.00;;;;;;;;;;5087139;28;20103;-51
2021/07/27 11:33:13;;;;;;;2.17;1.55;;;;;;;;;;5079294;28;20040;-49
2021/07/27 11:35:46;;;;;;;4.00;2.03;;;;;;;;;;5060922;28;20035;-49
2021/07/27 11:38:20;;;;;;;4.45;1.90;;;;;;;;;;5072526;28;20025;-51
2021/07/27 11:40:47;;;;;;;2.58;1.65;;;;;;;;;;5073575;28;20033;-48
2021/07/27 11:43:13;;;;;;;2.35;1.83;;;;;;;;;;5065675;28;20394;-48
2021/07/27 11:45:44;;;;;;;2.90;1.95;;;;;;;;;;5066661;28;20037;-48
2021/07/27 11:48:11;;;;;;;3.60;1.92;;;;;;;;;;5073476;28;20024;-52
2021/07/27 11:50:39;;;;;;;2.78;1.90;;;;;;;;;;5071424;28;20036;-48
2021/07/27 11:53:08;;;;;;;5.80;2.08;;;;;;;;;;5092640;28;20028;-51
2021/07/27 11:55:35;;;;;;;3.80;2.15;;;;;;;;;;5090009;28;20479;-48
2021/07/27 11:58:01;;;;;;;3.25;1.92;;;;;;;;;;5078925;28;20031;-48
2021/07/27 12:00:28;;;;;;;3.83;2.08;;;;;;;;;;5079923;28;20033;-51
2021/07/27 12:02:54;;;;;;;3.13;1.75;;;;;;;;;;5073827;28;20410;-50
2021/07/27 12:05:20;;;;;;;2.45;1.58;;;;;;;;;;5073965;28;20162;-48
2021/07/27 12:07:46;;;;;;;5.25;2.08;;;;;;;;;;5089845;28;20016;-52
2021/07/27 12:10:13;;;;;;;2.88;1.50;;;;;;;;;;5077552;28;20044;-49
2021/07/27 12:12:39;;;;;;;4.00;1.40;;;;;;;;;;5072696;28;20178;-51
2021/07/27 12:15:05;;;;;;;3.75;1.77;;;;;;;;;;5081798;28;20142;-49
2021/07/27 12:17:31;;;;;;;2.10;1.80;;;;;;;;;;5080127;28;20111;-48
2021/07/27 12:19:57;;;;;;;4.00;1.63;;;;;;;;;;5082800;28;20186;-50
2021/07/27 12:22:23;;;;;;;2.78;1.90;;;;;;;;;;5082778;28;20024;-48
2021/07/27 12:24:49;;;;;;;3.00;1.55;;;;;;;;;;5082335;28;20060;-49
2021/07/27 12:27:15;;;;;;;1.90;1.38;;;;;;;;;;5075542;28;20037;-50
2021/07/27 12:29:41;;;;;;;2.22;1.55;;;;;;;;;;5072193;28;20095;-49
2021/07/27 12:32:07;;;;;;;3.20;1.65;;;;;;;;;;5080203;28;20459;-50
2021/07/27 12:34:33;;;;;;;2.33;1.83;;;;;;;;;;5076848;28;20024;-51
2021/07/27 12:36:59;;;;;;;2.40;1.80;;;;;;;;;;5077364;28;20036;-54
2021/07/27 12:39:26;;;;;;;3.60;1.90;;;;;;;;;;5082196;28;20103;-50
2021/07/27 12:41:52;;;;;;;3.80;1.80;;;;;;;;;;5084138;28;20376;-49
2021/07/27 12:44:18;;;;;;;2.55;1.75;;;;;;;;;;5081670;28;20063;-48
2021/07/27 12:46:44;;;;;;;2.38;1.90;;;;;;;;;;5081838;28;20020;-49
2021/07/27 12:49:14;;;;;;;3.03;1.80;;;;;;;;;;5082059;28;20066;-49
2021/07/27 12:51:40;;;;;;;3.40;1.70;;;;;;;;;;5078909;28;20593;-48
2021/07/27 12:54:06;;;;;;;2.28;1.60;;;;;;;;;;5074612;28;20032;-50
2021/07/27 12:56:34;;;;;;;1.95;1.70;;;;;;;;;;5076951;28;20030;-51
2021/07/27 12:59:00;;;;;;;2.72;1.75;;;;;;;;;;5091857;28;20432;-49
2021/07/27 13:01:26;;;;;;;3.42;2.00;;;;;;;;;;5086326;28;20029;-50
2021/07/27 13:03:52;;;;;;;2.47;1.80;;;;;;;;;;5083945;28;20170;-48
2021/07/27 13:06:18;;;;;;;2.28;1.67;;;;;;;;;;5071425;28;20481;-49
2021/07/27 13:08:44;;;;;;;2.17;1.63;;;;;;;;;;5055709;28;20055;-49
2021/07/27 13:11:11;;;;;;;2.50;2.00;;;;;;;;;;5083842;28;20036;-50
2021/07/27 13:13:37;;;;;;;4.72;1.60;;;;;;;;;;5096407;28;20047;-52
2021/07/27 13:16:03;;;;;;;3.05;1.65;;;;;;;;;;5077483;28;20032;-48
2021/07/27 13:18:29;;;;;;;2.47;1.20;;;;;;;;;;5075175;28;20035;-52
2021/07/27 13:20:55;;;;;;;3.67;1.17;;;;;;;;;;5094703;28;20028;-49
2021/07/27 13:23:21;;;;;;;3.47;1.42;;;;;;;;;;5081430;28;20032;-49
2021/07/27 13:25:47;;;;;;;3.28;1.60;;;;;;;;;;5095895;28;20031;-49
2021/07/27 13:28:13;;;;;;;4.80;1.30;;;;;;;;;;5086247;28;20024;-51
2021/07/27 13:30:40;;;;;;;3.05;1.52;;;;;;;;;;5095731;28;20043;-49
2021/07/27 13:33:06;;;;;;;5.40;2.00;;;;;;;;;;5089105;28;20035;-51
2021/07/27 13:35:32;;;;;;;4.22;1.48;;;;;;;;;;5071021;28;20020;-49
2021/07/27 13:37:58;;;;;;;3.20;1.33;;;;;;;;;;5095489;28;20464;-50
2021/07/27 13:40:24;;;;;;;2.60;1.42;;;;;;;;;;5095601;28;20065;-49
2021/07/27 13:42:50;;;;;;;2.28;1.45;;;;;;;;;;5095860;28;20067;-50
2021/07/27 13:45:16;;;;;;;8.27;2.20;;;;;;;;;;5095076;28;20376;-49
2021/07/27 13:47:42;;;;;;;1.60;1.10;;;;;;;;;;5075611;28;20064;-52
2021/07/27 13:50:09;;;;;;;2.33;1.13;;;;;;;;;;5082411;28;20082;-49
2021/07/27 13:52:35;;;;;;;1.20;0.90;;;;;;;;;;5079179;28;20156;-52
2021/07/27 13:55:01;;;;;;;4.70;1.50;;;;;;;;;;5095066;28;20500;-49
2021/07/27 13:57:27;;;;;;;1.42;1.17;;;;;;;;;;5095310;28;20067;-49
2021/07/27 13:59:53;;;;;;;2.30;1.23;;;;;;;;;;5094608;28;20024;-50
2021/07/27 14:02:19;;;;;;;1.48;0.95;;;;;;;;;;5095279;28;20424;-52
2021/07/27 14:04:45;;;;;;;2.38;0.70;;;;;;;;;;5089814;28;20028;-49
2021/07/27 14:07:12;;;;;;;4.70;0.85;;;;;;;;;;5083059;28;20035;-51
2021/07/27 14:09:38;;;;;;;1.60;0.80;;;;;;;;;;5078860;28;20494;-49
2021/07/27 14:12:04;;;;;;;2.58;1.00;;;;;;;;;;5067598;28;20025;-49
2021/07/27 14:14:30;;;;;;;2.55;0.70;;;;;;;;;;5060538;28;20153;-49
2021/07/27 14:16:56;;;;;;;3.65;0.88;;;;;;;;;;5063063;28;20110;-50
2021/07/27 14:19:22;;;;;;;2.67;0.90;;;;;;;;;;5076703;28;20024;-52
2021/07/27 14:21:48;;;;;;;1.70;0.70;;;;;;;;;;5076063;28;20508;-52
2021/07/27 14:24:16;;;;;;;3.00;0.90;;;;;;;;;;5082070;28;20027;-51
2021/07/27 14:26:42;;;;;;;0.82;0.50;;;;;;;;;;5068233;28;20030;-55
2021/07/27 14:29:08;;;;;;;1.15;0.88;;;;;;;;;;5067128;28;20025;-50
2021/07/27 14:31:34;;;;;;;2.42;0.88;;;;;;;;;;5081648;28;20081;-50
2021/07/27 14:34:00;;;;;;;1.73;0.80;;;;;;;;;;5089273;28;20021;-49
2021/07/27 14:36:26;;;;;;;1.33;0.70;;;;;;;;;;5092294;28;20054;-51
2021/07/27 14:38:53;;;;;;;1.67;0.70;;;;;;;;;;5094268;28;20020;-49
2021/07/27 14:41:19;;;;;;;1.30;0.88;;;;;;;;;;5094366;28;20467;-55
2021/07/27 14:43:45;;;;;;;2.75;1.00;;;;;;;;;;5084578;28;20369;-49
2021/07/27 14:46:11;;;;;;;1.23;0.80;;;;;;;;;;5070015;28;20071;-49
2021/07/27 14:48:39;;;;;;;1.30;1.10;;;;;;;;;;5078270;28;20476;-49
2021/07/27 14:51:05;;;;;;;1.35;1.02;;;;;;;;;;5074989;28;20039;-49
2021/07/27 14:53:31;;;;;;;5.03;1.00;;;;;;;;;;5084940;28;20029;-51
2021/07/27 14:55:57;;;;;;;2.40;1.10;;;;;;;;;;5093051;28;20112;-51
2021/07/27 14:58:23;;;;;;;2.45;0.90;;;;;;;;;;5058297;28;20033;-52
2021/07/27 15:00:49;;;;;;;2.65;1.00;;;;;;;;;;5083992;28;20110;-49
2021/07/27 15:03:15;;;;;;;3.17;1.00;;;;;;;;;;5067642;28;20024;-53